createdAt,value
2018-06-20T00:01:55.544Z,99732.00
2018-06-20T00:04:26.251Z,99732.00
2018-06-20T00:06:57.021Z,99738.00
2018-06-20T00:09:27.044Z,99739.00
2018-06-20T00:11:57.679Z,99733.00
2018-06-20T00:14:28.290Z,99732.00
2018-06-20T00:16:59.156Z,99735.00
2018-06-20T00:19:29.968Z,99737.00
2018-06-20T00:22:00.891Z,99733.00
2018-06-20T00:24:31.548Z,99731.00
2018-06-20T00:27:02.089Z,99731.00
2018-06-20T00:29:32.693Z,99727.00
2018-06-20T00:32:03.568Z,99734.00
2018-06-20T00:34:34.187Z,99735.00
2018-06-20T00:37:04.066Z,99729.00
2018-06-20T00:39:34.662Z,99730.00
2018-06-20T00:42:05.702Z,99724.00
2018-06-20T00:44:36.112Z,99732.00
2018-06-20T00:47:07.033Z,99740.00
2018-06-20T00:49:37.671Z,99742.00
2018-06-20T00:52:08.289Z,99740.00
2018-06-20T00:54:38.578Z,99734.00
2018-06-20T00:57:09.298Z,99736.00
2018-06-20T00:59:39.910Z,99733.00
2018-06-20T01:02:11.513Z,99732.00
2018-06-20T01:04:42.222Z,99739.00
2018-06-20T01:07:12.014Z,99739.00
2018-06-20T01:09:42.564Z,99734.00
2018-06-20T01:12:13.282Z,99738.00
2018-06-20T01:14:43.596Z,99739.00
2018-06-20T01:17:14.389Z,99735.00
2018-06-20T01:19:45.367Z,99732.00
2018-06-20T01:22:15.996Z,99736.00
2018-06-20T01:24:46.767Z,99747.00
2018-06-20T01:27:17.521Z,99746.00
2018-06-20T01:29:48.198Z,99743.00
2018-06-20T01:32:19.409Z,99739.00
2018-06-20T01:34:50.344Z,99736.00
2018-06-20T01:37:20.654Z,99739.00
2018-06-20T01:39:51.460Z,99748.00
2018-06-20T01:42:22.266Z,99748.00
2018-06-20T01:44:52.974Z,99750.00
2018-06-20T01:47:23.784Z,99751.00
2018-06-20T01:49:54.544Z,99749.00
2018-06-20T01:52:25.423Z,99758.00
2018-06-20T01:54:56.076Z,99754.00
2018-06-20T01:57:26.743Z,99751.00
2018-06-20T01:59:57.386Z,99753.00
2018-06-20T02:02:28.608Z,99754.00
2018-06-20T02:04:59.388Z,99752.00
2018-06-20T02:07:30.384Z,99752.00
2018-06-20T02:10:00.827Z,99756.00
2018-06-20T02:12:31.043Z,99752.00
2018-06-20T02:15:01.567Z,99756.00
2018-06-20T02:17:32.035Z,99752.00
2018-06-20T02:20:02.708Z,99756.00
2018-06-20T02:22:33.303Z,99756.00
2018-06-20T02:25:03.894Z,99753.00
2018-06-20T02:27:34.553Z,99759.00
2018-06-20T02:30:05.387Z,99760.00
2018-06-20T02:32:36.196Z,99765.00
2018-06-20T02:35:07.873Z,99770.00
2018-06-20T02:37:38.546Z,99769.00
2018-06-20T02:40:09.105Z,99776.00
2018-06-20T02:42:39.523Z,99771.00
2018-06-20T02:45:09.786Z,99774.00
2018-06-20T02:47:41.725Z,99782.00
2018-06-20T02:50:14.020Z,99783.00
2018-06-20T02:52:44.848Z,99788.00
2018-06-20T02:55:15.714Z,99787.00
2018-06-20T02:57:46.400Z,99791.00
2018-06-20T03:00:17.781Z,99790.00
2018-06-20T03:02:48.406Z,99795.00
2018-06-20T03:05:20.438Z,99799.00
2018-06-20T03:07:50.899Z,99798.00
2018-06-20T03:10:20.875Z,99801.00
2018-06-20T03:12:50.730Z,99803.00
2018-06-20T03:15:20.519Z,99805.00
2018-06-20T03:17:50.332Z,99806.00
2018-06-20T03:20:21.384Z,99806.00
2018-06-20T03:22:51.290Z,99804.00
2018-06-20T03:25:21.157Z,99814.00
2018-06-20T03:27:51.016Z,99810.00
2018-06-20T03:30:20.853Z,99814.00
2018-06-20T03:32:50.561Z,99824.00
2018-06-20T03:35:20.350Z,99822.00
2018-06-20T03:37:50.428Z,99826.00
2018-06-20T03:40:20.268Z,99828.00
2018-06-20T03:42:50.067Z,99826.00
2018-06-20T03:45:20.582Z,99831.00
2018-06-20T03:47:51.414Z,99832.00
2018-06-20T03:50:22.317Z,99831.00
2018-06-20T03:52:52.776Z,99835.00
2018-06-20T03:55:23.607Z,99839.00
2018-06-20T03:57:54.253Z,99842.00
2018-06-20T04:00:25.069Z,99843.00
2018-06-20T04:02:55.533Z,99842.00
2018-06-20T04:05:29.871Z,99851.00
2018-06-20T04:08:01.099Z,99850.00
2018-06-20T04:10:31.809Z,99851.00
2018-06-20T04:13:03.374Z,99857.00
2018-06-20T04:15:34.874Z,99859.00
2018-06-20T04:18:06.126Z,99857.00
2018-06-20T04:20:37.278Z,99855.00
2018-06-20T04:23:08.523Z,99861.00
2018-06-20T04:25:39.288Z,99858.00
2018-06-20T04:28:10.137Z,99858.00
2018-06-20T04:30:40.834Z,99861.00
2018-06-20T04:33:11.978Z,99865.00
2018-06-20T04:35:42.036Z,99866.00
2018-06-20T04:38:13.496Z,99867.00
2018-06-20T04:40:43.948Z,99864.00
2018-06-20T04:43:15.493Z,99868.00
2018-06-20T04:45:46.163Z,99869.00
2018-06-20T04:48:16.815Z,99868.00
2018-06-20T04:50:48.025Z,99872.00
2018-06-20T04:53:19.183Z,99875.00
2018-06-20T04:55:49.354Z,99876.00
2018-06-20T04:58:20.514Z,99880.00
2018-06-20T05:00:51.504Z,99882.00
2018-06-20T05:03:22.891Z,99888.00
2018-06-20T05:05:54.310Z,99888.00
2018-06-20T05:08:25.312Z,99881.00
2018-06-20T05:10:56.101Z,99885.00
2018-06-20T05:13:27.298Z,99887.00
2018-06-20T05:15:58.500Z,99893.00
2018-06-20T05:18:29.419Z,99894.00
2018-06-20T05:20:59.592Z,99891.00
2018-06-20T05:23:30.471Z,99893.00
2018-06-20T05:26:02.103Z,99895.00
2018-06-20T05:28:33.182Z,99895.00
2018-06-20T05:31:03.808Z,99898.00
2018-06-20T05:33:34.331Z,99896.00
2018-06-20T05:36:05.463Z,99897.00
2018-06-20T05:38:35.873Z,99894.00
2018-06-20T05:41:07.146Z,99893.00
2018-06-20T05:43:38.786Z,99892.00
2018-06-20T05:46:10.079Z,99897.00
2018-06-20T05:48:41.445Z,99894.00
2018-06-20T05:51:12.327Z,99897.00
2018-06-20T05:53:43.114Z,99905.00
2018-06-20T05:56:13.795Z,99902.00
2018-06-20T05:58:44.523Z,99905.00
2018-06-20T06:01:15.065Z,99900.00
2018-06-20T06:03:45.703Z,99900.00
2018-06-20T06:06:17.234Z,99901.00
2018-06-20T06:08:48.413Z,99898.00
2018-06-20T06:11:19.058Z,99898.00
2018-06-20T06:13:50.012Z,99891.00
2018-06-20T06:16:21.051Z,99897.00
2018-06-20T06:18:52.175Z,99898.00
2018-06-20T06:21:22.975Z,99896.00
2018-06-20T06:23:53.764Z,99899.00
2018-06-20T06:26:24.237Z,99897.00
2018-06-20T06:28:54.160Z,99897.00
2018-06-20T06:31:24.177Z,99897.00
2018-06-20T06:33:55.168Z,99903.00
2018-06-20T06:36:25.595Z,99891.00
2018-06-20T06:38:56.621Z,99891.00
2018-06-20T06:41:27.371Z,99890.00
2018-06-20T06:43:57.902Z,99893.00
2018-06-20T06:46:28.401Z,99891.00
2018-06-20T06:48:59.245Z,99895.00
2018-06-20T06:51:29.945Z,99883.00
2018-06-20T06:54:00.230Z,99884.00
2018-06-20T06:56:31.559Z,99880.00
2018-06-20T06:59:02.619Z,99881.00
2018-06-20T07:01:33.543Z,99877.00
2018-06-20T07:04:03.681Z,99877.00
2018-06-20T07:06:34.434Z,99872.00
2018-06-20T07:09:07.270Z,99875.00
2018-06-20T07:11:37.864Z,99874.00
2018-06-20T07:14:08.727Z,99874.00
2018-06-20T07:16:38.967Z,99878.00
2018-06-20T07:19:10.045Z,99878.00
2018-06-20T07:21:39.871Z,99877.00
2018-06-20T07:24:10.765Z,99876.00
2018-06-20T07:26:41.554Z,99864.00
2018-06-20T07:29:11.828Z,99861.00
2018-06-20T07:31:42.755Z,99860.00
2018-06-20T07:34:13.427Z,99860.00
2018-06-20T07:36:44.238Z,99859.00
2018-06-20T07:39:15.181Z,99857.00
2018-06-20T07:41:45.627Z,99859.00
2018-06-20T07:44:17.269Z,99862.00
2018-06-20T07:46:47.937Z,99861.00
2018-06-20T07:49:17.955Z,99866.00
2018-06-20T07:51:48.794Z,99859.00
2018-06-20T07:54:18.956Z,99852.00
2018-06-20T07:56:49.547Z,99851.00
2018-06-20T07:59:20.304Z,99857.00
2018-06-20T08:02:06.435Z,99846.00
2018-06-20T08:04:42.547Z,99847.00
2018-06-20T08:07:18.563Z,99848.00
2018-06-20T08:09:54.798Z,99836.00
2018-06-20T08:12:31.191Z,99834.00
2018-06-20T08:15:06.870Z,99835.00
2018-06-20T08:17:42.492Z,99828.00
2018-06-20T08:20:18.604Z,99831.00
2018-06-20T08:22:49.857Z,99832.00
2018-06-20T08:25:21.160Z,99844.00
2018-06-20T08:27:52.077Z,99841.00
2018-06-20T08:30:22.710Z,99833.00
2018-06-20T08:32:53.445Z,99827.00
2018-06-20T08:35:24.316Z,99830.00
2018-06-20T08:37:54.585Z,99822.00
2018-06-20T08:40:25.189Z,99820.00
2018-06-20T08:42:56.286Z,99814.00
2018-06-20T08:45:27.122Z,99818.00
2018-06-20T08:47:57.851Z,99802.00
2018-06-20T08:50:27.637Z,99797.00
2018-06-20T08:52:57.534Z,99810.00
2018-06-20T08:55:27.437Z,99805.00
2018-06-20T08:57:57.272Z,99805.00
2018-06-20T09:00:32.138Z,99803.00
2018-06-20T09:03:01.991Z,99804.00
2018-06-20T09:05:36.997Z,99808.00
2018-06-20T09:08:12.031Z,99800.00
2018-06-20T09:10:47.038Z,99798.00
2018-06-20T09:13:21.963Z,99796.00
2018-06-20T09:15:56.923Z,99798.00
2018-06-20T09:18:31.955Z,99795.00
2018-06-20T09:21:01.795Z,99787.00
2018-06-20T09:23:31.643Z,99792.00
2018-06-20T09:26:01.422Z,99789.00
2018-06-20T09:28:31.271Z,99788.00
2018-06-20T09:31:00.983Z,99788.00
2018-06-20T09:33:30.838Z,99790.00
2018-06-20T09:36:00.633Z,99783.00
2018-06-20T09:38:30.534Z,99779.00
2018-06-20T09:41:00.315Z,99782.00
2018-06-20T09:43:30.229Z,99780.00
2018-06-20T09:46:00.103Z,99776.00
2018-06-20T09:48:29.975Z,99775.00
2018-06-20T09:51:00.350Z,99778.00
2018-06-20T09:53:30.223Z,99775.00
2018-06-20T09:56:00.118Z,99776.00
2018-06-20T09:58:29.915Z,99776.00
2018-06-20T10:01:04.923Z,99776.00
2018-06-20T10:03:39.869Z,99781.00
2018-06-20T10:06:14.815Z,99781.00
2018-06-20T10:08:49.875Z,99770.00
2018-06-20T10:11:24.949Z,99769.00
2018-06-20T10:13:59.844Z,99775.00
2018-06-20T10:16:30.874Z,99771.00
2018-06-20T10:19:00.828Z,99770.00
2018-06-20T10:21:30.772Z,99769.00
2018-06-20T10:24:00.597Z,99755.00
2018-06-20T10:26:30.545Z,99758.00
2018-06-20T10:29:00.613Z,99758.00
2018-06-20T10:31:30.726Z,99754.00
2018-06-20T10:34:00.542Z,99761.00
2018-06-20T10:36:30.719Z,99757.00
2018-06-20T10:39:00.630Z,99750.00
2018-06-20T10:41:34.976Z,99748.00
2018-06-20T10:44:09.019Z,99746.00
2018-06-20T10:46:44.076Z,99746.00
2018-06-20T10:49:14.710Z,99748.00
2018-06-20T10:51:45.284Z,99744.00
2018-06-20T10:54:15.224Z,99735.00
2018-06-20T10:56:50.411Z,99737.00
2018-06-20T10:59:25.348Z,99734.00
2018-06-20T11:04:25.368Z,99732.00
2018-06-20T11:07:00.454Z,99733.00
2018-06-20T11:09:35.441Z,99739.00
2018-06-20T11:12:10.546Z,99746.00
2018-06-20T11:14:40.375Z,99737.00
2018-06-20T11:17:10.233Z,99738.00
2018-06-20T11:19:40.084Z,99731.00
2018-06-20T11:22:09.950Z,99729.00
2018-06-20T11:24:39.821Z,99743.00
2018-06-20T11:27:09.625Z,99740.00
2018-06-20T11:29:39.472Z,99741.00
2018-06-20T11:32:09.275Z,99742.00
2018-06-20T11:34:39.177Z,99731.00
2018-06-20T11:37:09.030Z,99738.00
2018-06-20T11:39:38.926Z,99736.00
2018-06-20T11:42:08.674Z,99731.00
2018-06-20T11:44:38.714Z,99715.00
2018-06-20T11:47:13.710Z,99718.00
2018-06-20T11:49:44.234Z,99712.00
2018-06-20T11:52:20.661Z,99715.00
2018-06-20T11:54:50.653Z,99712.00
2018-06-20T11:57:20.815Z,99711.00
2018-06-20T11:59:55.881Z,99713.00
2018-06-20T12:02:30.741Z,99707.00
2018-06-20T12:05:05.643Z,99717.00
2018-06-20T12:07:40.491Z,99725.00
2018-06-20T12:10:15.364Z,99712.00
2018-06-20T12:12:50.377Z,99713.00
2018-06-20T12:15:25.305Z,99720.00
2018-06-20T12:18:00.309Z,99705.00
2018-06-20T12:20:36.019Z,99700.00
2018-06-20T12:23:10.927Z,99705.00
2018-06-20T12:25:45.892Z,99714.00
2018-06-20T12:28:21.050Z,99714.00
2018-06-20T12:30:56.045Z,99696.00
2018-06-20T12:33:30.902Z,99696.00
2018-06-20T12:36:05.997Z,99698.00
2018-06-20T12:38:40.842Z,99701.00
2018-06-20T12:41:15.924Z,99690.00
2018-06-20T12:43:50.869Z,99705.00
2018-06-20T12:46:33.199Z,99704.00
2018-06-20T12:49:03.038Z,99710.00
2018-06-20T12:51:32.878Z,99701.00
2018-06-20T12:54:02.666Z,99693.00
2018-06-20T12:56:32.694Z,99687.00
2018-06-20T12:59:02.701Z,99684.00
2018-06-20T13:01:32.547Z,99690.00
2018-06-20T13:04:02.516Z,99689.00
2018-06-20T13:06:32.479Z,99682.00
2018-06-20T13:09:02.377Z,99680.00
2018-06-20T13:11:32.406Z,99684.00
2018-06-20T13:14:02.277Z,99674.00
2018-06-20T13:16:32.217Z,99678.00
2018-06-20T13:19:02.822Z,99669.00
2018-06-20T13:22:07.790Z,99675.00
2018-06-20T13:24:50.488Z,99668.00
2018-06-20T13:27:34.652Z,99663.00
2018-06-20T13:30:11.776Z,99658.00
2018-06-20T13:32:47.233Z,99660.00
2018-06-20T13:35:22.197Z,99665.00
2018-06-20T13:37:57.060Z,99660.00
2018-06-20T13:40:32.227Z,99653.00
2018-06-20T13:43:07.418Z,99646.00
2018-06-20T13:45:42.370Z,99638.00
2018-06-20T13:48:17.328Z,99636.00
2018-06-20T13:50:47.252Z,99642.00
2018-06-20T13:53:17.100Z,99633.00
2018-06-20T13:55:46.975Z,99636.00
2018-06-20T13:58:17.105Z,99636.00
2018-06-20T14:00:47.044Z,99632.00
2018-06-20T14:03:16.891Z,99637.00
2018-06-20T14:05:46.831Z,99626.00
2018-06-20T14:08:16.681Z,99620.00
2018-06-20T14:10:46.595Z,99619.00
2018-06-20T14:13:16.394Z,99618.00
2018-06-20T14:15:46.260Z,99618.00
2018-06-20T14:18:16.179Z,99618.00
2018-06-20T14:20:51.299Z,99615.00
2018-06-20T14:23:21.164Z,99615.00
2018-06-20T14:25:51.162Z,99621.00
2018-06-20T14:28:21.020Z,99613.00
2018-06-20T14:30:55.823Z,99603.00
2018-06-20T14:33:30.720Z,99614.00
2018-06-20T14:36:05.703Z,99606.00
2018-06-20T14:38:40.614Z,99599.00
2018-06-20T14:41:15.163Z,99597.00
2018-06-20T14:43:49.958Z,99599.00
2018-06-20T14:46:21.867Z,99599.00
2018-06-20T14:48:51.807Z,99583.00
2018-06-20T14:51:21.833Z,99597.00
2018-06-20T14:53:51.658Z,99596.00
2018-06-20T14:56:22.018Z,99599.00
2018-06-20T14:58:51.812Z,99586.00
2018-06-20T15:01:21.659Z,99604.00
2018-06-20T15:03:51.555Z,99598.00
2018-06-20T15:06:21.332Z,99604.00
2018-06-20T15:08:51.158Z,99598.00
2018-06-20T15:11:20.971Z,99601.00
2018-06-20T15:13:50.793Z,99606.00
2018-06-20T15:16:25.648Z,99601.00
2018-06-20T15:18:55.608Z,99600.00
2018-06-20T15:21:25.346Z,99600.00
2018-06-20T15:23:55.291Z,99600.00
2018-06-20T15:26:30.215Z,99600.00
2018-06-20T15:29:05.255Z,99599.00
2018-06-20T15:31:40.242Z,99598.00
2018-06-20T15:34:15.240Z,99596.00
2018-06-20T15:36:50.459Z,99599.00
2018-06-20T15:39:20.656Z,99596.00
2018-06-20T15:41:57.807Z,99597.00
2018-06-20T15:44:32.500Z,99601.00
2018-06-20T15:47:03.989Z,99595.00
2018-06-20T15:49:34.136Z,99604.00
2018-06-20T15:52:04.102Z,99608.00
2018-06-20T15:54:34.066Z,99607.00
2018-06-20T15:57:03.894Z,99607.00
2018-06-20T15:59:33.716Z,99610.00
2018-06-20T16:02:03.577Z,99612.00
2018-06-20T16:04:33.360Z,99610.00
2018-06-20T16:07:03.428Z,99605.00
2018-06-20T16:09:38.338Z,99607.00
2018-06-20T16:12:08.157Z,99599.00
2018-06-20T16:14:37.904Z,99607.00
2018-06-20T16:17:07.770Z,99606.00
2018-06-20T16:20:44.565Z,99607.00
2018-06-20T16:23:22.396Z,99608.00
2018-06-20T16:25:59.645Z,99607.00
2018-06-20T16:28:34.756Z,99604.00
2018-06-20T16:31:04.588Z,99604.00
2018-06-20T16:33:34.341Z,99604.00
2018-06-20T16:36:04.238Z,99599.00
2018-06-20T16:38:34.081Z,99600.00
2018-06-20T16:41:03.976Z,99599.00
2018-06-20T16:43:33.893Z,99597.00
2018-06-20T16:46:03.737Z,99602.00
2018-06-20T16:48:33.513Z,99606.00
2018-06-20T16:51:03.332Z,99608.00
2018-06-20T16:53:33.161Z,99606.00
2018-06-20T16:56:02.973Z,99609.00
2018-06-20T16:58:33.021Z,99615.00
2018-06-20T17:01:08.099Z,99620.00
2018-06-20T17:03:37.978Z,99624.00
2018-06-20T17:06:07.882Z,99630.00
2018-06-20T17:08:37.775Z,99634.00
2018-06-20T17:11:07.646Z,99628.00
2018-06-20T17:14:41.152Z,99628.00
2018-06-20T17:17:16.110Z,99630.00
2018-06-20T17:19:51.060Z,99632.00
2018-06-20T17:22:25.903Z,99629.00
2018-06-20T17:25:01.093Z,99628.00
2018-06-20T17:27:30.984Z,99632.00
2018-06-20T17:30:00.880Z,99631.00
2018-06-20T17:32:30.739Z,99630.00
2018-06-20T17:35:00.661Z,99633.00
2018-06-20T17:37:30.737Z,99636.00
2018-06-20T17:40:00.609Z,99639.00
2018-06-20T17:42:30.430Z,99640.00
2018-06-20T17:45:00.293Z,99646.00
2018-06-20T17:47:30.069Z,99644.00
2018-06-20T17:49:59.814Z,99642.00
2018-06-20T17:52:29.690Z,99643.00
2018-06-20T17:54:59.409Z,99645.00
2018-06-20T17:57:29.294Z,99648.00
2018-06-20T17:59:59.231Z,99649.00
2018-06-20T18:02:29.239Z,99652.00
2018-06-20T18:05:04.112Z,99658.00
2018-06-20T18:07:38.987Z,99662.00
2018-06-20T18:10:13.939Z,99661.00
2018-06-20T18:12:48.945Z,99664.00
2018-06-20T18:15:23.893Z,99661.00
2018-06-20T18:17:53.899Z,99663.00
2018-06-20T18:20:23.810Z,99665.00
2018-06-20T18:22:53.543Z,99665.00
2018-06-20T18:25:23.561Z,99669.00
2018-06-20T18:27:53.541Z,99672.00
2018-06-20T18:30:23.320Z,99675.00
2018-06-20T18:32:53.173Z,99677.00
2018-06-20T18:35:23.108Z,99679.00
2018-06-20T18:37:53.835Z,99681.00
2018-06-20T18:40:24.204Z,99678.00
2018-06-20T18:42:54.051Z,99692.00
2018-06-20T18:45:24.330Z,99692.00
2018-06-20T18:47:59.382Z,99696.00
2018-06-20T18:50:29.206Z,99702.00
2018-06-20T18:52:59.026Z,99705.00
2018-06-20T18:55:28.785Z,99705.00
2018-06-20T18:58:03.857Z,99710.00
2018-06-20T19:00:38.720Z,99717.00
2018-06-20T19:03:13.774Z,99717.00
2018-06-20T19:05:48.639Z,99721.00
2018-06-20T19:09:21.333Z,99728.00
2018-06-20T19:11:51.168Z,99731.00
2018-06-20T19:14:21.516Z,99731.00
2018-06-20T19:16:51.433Z,99729.00
2018-06-20T19:19:21.299Z,99729.00
2018-06-20T19:21:51.208Z,99734.00
2018-06-20T19:24:21.033Z,99739.00
2018-06-20T19:26:50.811Z,99745.00
2018-06-20T19:29:20.582Z,99763.00
2018-06-20T19:31:50.380Z,99798.00
2018-06-20T19:34:20.171Z,99796.00
2018-06-20T19:36:50.043Z,99784.00
2018-06-20T19:39:24.975Z,99780.00
2018-06-20T19:41:54.872Z,99777.00
2018-06-20T19:44:29.836Z,99775.00
2018-06-20T19:46:59.626Z,99777.00
2018-06-20T19:49:29.418Z,99781.00
2018-06-20T19:51:59.229Z,99781.00
2018-06-20T19:54:29.032Z,99779.00
2018-06-20T19:56:58.966Z,99778.00
2018-06-20T19:59:28.707Z,99783.00
2018-06-20T20:01:58.460Z,99781.00
2018-06-20T20:04:28.283Z,99783.00
2018-06-20T20:06:58.058Z,99785.00
2018-06-20T20:09:27.820Z,99781.00
2018-06-20T20:11:57.542Z,99787.00
2018-06-20T20:14:27.327Z,99791.00
2018-06-20T20:16:57.231Z,99790.00
2018-06-20T20:19:27.016Z,99788.00
2018-06-20T20:21:56.918Z,99791.00
2018-06-20T20:24:26.863Z,99793.00
2018-06-20T20:26:56.924Z,99796.00
2018-06-20T20:29:26.746Z,99793.00
2018-06-20T20:31:56.577Z,99794.00
2018-06-20T20:34:26.345Z,99798.00
2018-06-20T20:36:57.604Z,99800.00
2018-06-20T20:39:27.465Z,99798.00
2018-06-20T20:41:57.311Z,99798.00
2018-06-20T20:44:27.180Z,99802.00
2018-06-20T20:46:57.097Z,99812.00
2018-06-20T20:49:27.100Z,99808.00
2018-06-20T20:51:56.954Z,99806.00
2018-06-20T20:54:26.823Z,99808.00
2018-06-20T20:56:56.654Z,99809.00
2018-06-20T20:59:26.471Z,99820.00
2018-06-20T21:01:56.302Z,99817.00
2018-06-20T21:04:26.219Z,99820.00
2018-06-20T21:06:56.155Z,99817.00
2018-06-20T21:09:26.249Z,99817.00
2018-06-20T21:11:56.104Z,99820.00
2018-06-20T21:14:25.901Z,99816.00
2018-06-20T21:16:55.706Z,99816.00
2018-06-20T21:19:25.410Z,99815.00
2018-06-20T21:21:55.176Z,99813.00
2018-06-20T21:24:26.763Z,99809.00
2018-06-20T21:26:56.551Z,99803.00
2018-06-20T21:29:26.501Z,99805.00
2018-06-20T21:31:56.335Z,99808.00
2018-06-20T21:34:26.090Z,99804.00
2018-06-20T21:36:55.992Z,99806.00
2018-06-20T21:39:25.919Z,99799.00
2018-06-20T21:41:55.804Z,99810.00
2018-06-20T21:44:25.670Z,99804.00
2018-06-20T21:46:55.625Z,99805.00
2018-06-20T21:49:25.440Z,99802.00
2018-06-20T21:51:55.176Z,99803.00
2018-06-20T21:54:25.021Z,99799.00
2018-06-20T21:56:54.932Z,99800.00
2018-06-20T21:59:24.819Z,99800.00
2018-06-20T22:01:54.695Z,99802.00
2018-06-20T22:04:24.571Z,99802.00
2018-06-20T22:06:54.408Z,99798.00
2018-06-20T22:09:24.927Z,99803.00
2018-06-20T22:11:55.090Z,99801.00
2018-06-20T22:14:25.436Z,99799.00
2018-06-20T22:16:55.950Z,99799.00
2018-06-20T22:19:26.466Z,99801.00
2018-06-20T22:21:56.876Z,99801.00
2018-06-20T22:24:27.501Z,99793.00
2018-06-20T22:26:58.054Z,99794.00
2018-06-20T22:29:28.349Z,99792.00
2018-06-20T22:31:58.951Z,99794.00
2018-06-20T22:34:29.410Z,99796.00
2018-06-20T22:36:59.988Z,99793.00
2018-06-20T22:39:30.464Z,99793.00
2018-06-20T22:42:01.021Z,99799.00
2018-06-20T22:44:31.330Z,99802.00
2018-06-20T22:47:01.930Z,99804.00
2018-06-20T22:49:32.640Z,99797.00
2018-06-20T22:52:03.227Z,99802.00
2018-06-20T22:54:34.480Z,99798.00
2018-06-20T22:57:05.205Z,99794.00
2018-06-20T22:59:35.210Z,99794.00
2018-06-20T23:02:06.098Z,99791.00
2018-06-20T23:04:36.084Z,99791.00
2018-06-20T23:07:06.830Z,99790.00
2018-06-20T23:09:37.545Z,99793.00
2018-06-20T23:12:08.655Z,99789.00
2018-06-20T23:14:39.502Z,99789.00
2018-06-20T23:17:10.659Z,99791.00
2018-06-20T23:19:41.354Z,99791.00
2018-06-20T23:22:12.368Z,99789.00
2018-06-20T23:24:43.168Z,99790.00
2018-06-20T23:27:13.910Z,99792.00
2018-06-20T23:29:44.785Z,99797.00
2018-06-20T23:32:15.406Z,99796.00
2018-06-20T23:34:46.144Z,99798.00
2018-06-20T23:37:16.911Z,99793.00
2018-06-20T23:39:47.807Z,99793.00
2018-06-20T23:42:18.581Z,99795.00
2018-06-20T23:44:49.379Z,99792.00
2018-06-20T23:47:20.028Z,99786.00
2018-06-20T23:49:50.838Z,99787.00
2018-06-20T23:52:21.616Z,99784.00
2018-06-20T23:54:51.459Z,99784.00
2018-06-20T23:57:22.044Z,99779.00
2018-06-20T23:59:53.040Z,99777.00
